| time (UTC) | temp F | wind direction | speed MPH | gust MPH | rain 1hr in | rain 24hr in | rain mn in | humidity % | barometer mb |
| 20260502230006 | 58 | 161 | 5.0 | 9.0 | 0.00 | 0.00 | 0.00 | 51 | 1017.8 |
| 20260502223115 | 59 | 176 | 3.0 | 6.0 | 0.00 | 0.00 | 0.00 | 46 | 1017.8 |
| 20260502221617 | 60 | 168 | 3.0 | 5.0 | 0.00 | 0.00 | 0.00 | 46 | 1017.9 |
| 20260502220058 | 60 | 167 | 2.0 | 6.0 | 0.00 | 0.00 | 0.00 | 46 | 1017.9 |
| 20260502214546 | 61 | 171 | 4.0 | 7.0 | 0.00 | 0.00 | 0.00 | 44 | 1017.8 |
| 20260502213046 | 61 | 162 | 4.0 | 7.0 | 0.00 | 0.00 | 0.00 | 44 | 1018.0 |
| 20260502211541 | 61 | 175 | 3.0 | 6.0 | 0.00 | 0.00 | 0.00 | 45 | 1018.1 |
| 20260502210017 | 61 | 157 | 3.0 | 6.0 | 0.00 | 0.00 | 0.00 | 45 | 1018.3 |
| 20260502204523 | 62 | 146 | 3.0 | 8.0 | 0.00 | 0.00 | 0.00 | 44 | 1018.4 |
| 20260502203018 | 62 | 150 | 2.0 | 6.0 | 0.00 | 0.00 | 0.00 | 43 | 1018.4 |
| 20260502201517 | 63 | 148 | 3.0 | 6.0 | 0.00 | 0.00 | 0.00 | 42 | 1018.4 |
| 20260502200059 | 63 | 152 | 3.0 | 6.0 | 0.00 | 0.00 | 0.00 | 41 | 1018.4 |
| 20260502194555 | 64 | 184 | 2.0 | 4.0 | 0.00 | 0.00 | 0.00 | 40 | 1018.4 |
| 20260502193050 | 64 | 163 | 2.0 | 6.0 | 0.00 | 0.00 | 0.00 | 40 | 1018.4 |
| 20260502191524 | 64 | 158 | 2.0 | 3.0 | 0.00 | 0.00 | 0.00 | 39 | 1018.6 |
| 20260502190006 | 65 | 165 | 1.0 | 3.0 | 0.00 | 0.00 | 0.00 | 38 | 1018.6 |
| 20260502184508 | 65 | 146 | 2.0 | 4.0 | 0.00 | 0.00 | 0.00 | 38 | 1018.3 |
| 20260502183007 | 66 | 169 | 2.0 | 5.0 | 0.00 | 0.00 | 0.00 | 38 | 1018.3 |
| 20260502181508 | 66 | 159 | 2.0 | 6.0 | 0.00 | 0.00 | 0.00 | 39 | 1018.2 |
| 20260502163025 | 72 | 175 | 2.0 | 7.0 | 0.00 | 0.00 | 0.00 | 33 | 1018.9 |
| 20260502161505 | 73 | 130 | 4.0 | 8.0 | 0.00 | 0.00 | 0.00 | 32 | 1019.2 |
| 20260502151546 | 74 | 98 | 2.0 | 8.0 | 0.00 | 0.00 | 0.00 | 30 | 1019.8 |
| 20260502123001 | 73 | 111 | 2.0 | 10.0 | 0.00 | 0.00 | 0.00 | 30 | 1022.1 |
| 20260502121602 | 73 | 173 | 2.0 | 7.0 | 0.00 | 0.00 | 0.00 | 29 | 1022.2 |
| 20260502114534 | 72 | 140 | 5.0 | 8.0 | 0.00 | 0.00 | 0.00 | 32 | 1022.6 |
| 20260502113036 | 72 | 332 | 2.0 | 8.0 | 0.00 | 0.00 | 0.00 | 31 | 1022.7 |
| 20260502111537 | 72 | 89 | 3.0 | 12.0 | 0.00 | 0.00 | 0.00 | 32 | 1022.9 |
| 20260502110010 | 72 | 143 | 4.0 | 8.0 | 0.00 | 0.00 | 0.00 | 35 | 1023.0 |
| 20260502104511 | 72 | 136 | 3.0 | 9.0 | 0.00 | 0.00 | 0.00 | 33 | 1023.2 |
| 20260502103001 | 72 | 265 | 3.0 | 8.0 | 0.00 | 0.00 | 0.00 | 34 | 1023.3 |
| 20260502101605 | 71 | 191 | 5.0 | 8.0 | 0.00 | 0.00 | 0.00 | 33 | 1023.6 |
| 20260502091511 | 70 | 225 | 4.0 | 10.0 | 0.00 | 0.00 | 0.00 | 34 | 1024.1 |
| 20260502071532 | 67 | 227 | 2.0 | 5.0 | 0.00 | 0.00 | 0.00 | 45 | 1024.4 |
| 20260502070002 | 66 | 237 | 2.0 | 6.0 | 0.00 | 0.00 | 0.00 | 43 | 1024.7 |
| 20260502064603 | 66 | 157 | 1.0 | 6.0 | 0.00 | 0.00 | 0.00 | 45 | 1024.4 |
| 20260502063109 | 65 | 215 | 1.0 | 3.0 | 0.00 | 0.00 | 0.00 | 49 | 1024.5 |
| 20260502061548 | 63 | 221 | 1.0 | 4.0 | 0.00 | 0.00 | 0.00 | 49 | 1024.5 |
| 20260502060018 | 63 | 195 | 1.0 | 3.0 | 0.00 | 0.00 | 0.00 | 50 | 1024.5 |
| 20260502054509 | 61 | 231 | 2.0 | 5.0 | 0.00 | 0.00 | 0.00 | 50 | 1024.4 |
| 20260502053004 | 60 | 234 | 1.0 | 5.0 | 0.00 | 0.00 | 0.00 | 54 | 1024.6 |
| 20260502051605 | 59 | 236 | 1.0 | 4.0 | 0.00 | 0.00 | 0.00 | 54 | 1024.4 |
| 20260502050043 | 58 | 257 | 1.0 | 4.0 | 0.00 | 0.00 | 0.00 | 56 | 1024.4 |
| 20260502044542 | 57 | 219 | 0.0 | 3.0 | 0.00 | 0.00 | 0.00 | 57 | 1024.3 |
| 20260502043040 | 55 | 241 | 0.0 | 3.0 | 0.00 | 0.00 | 0.00 | 58 | 1024.3 |
| 20260502041536 | 53 | 242 | 2.0 | 4.0 | 0.00 | 0.00 | 0.00 | 61 | 1024.3 |
| 20260502040014 | 51 | 232 | 1.0 | 3.0 | 0.00 | 0.00 | 0.00 | 64 | 1024.2 |
| 20260502034512 | 52 | 182 | 0.0 | 4.0 | 0.00 | 0.00 | 0.00 | 64 | 1024.4 |
| 20260502033102 | 52 | 275 | 0.0 | 4.0 | 0.00 | 0.00 | 0.00 | 62 | 1024.3 |
| 20260502031556 | 53 | 308 | 1.0 | 3.0 | 0.00 | 0.00 | 0.00 | 59 | 1024.5 |
| 20260502030042 | 54 | 227 | 1.0 | 4.0 | 0.00 | 0.00 | 0.00 | 58 | 1024.2 |
| 20260502024525 | 54 | 234 | 2.0 | 3.0 | 0.00 | 0.00 | 0.00 | 57 | 1024.3 |
| 20260502023030 | 55 | 212 | 1.0 | 3.0 | 0.00 | 0.00 | 0.00 | 56 | 1024.4 |
| 20260502021520 | 55 | 215 | 2.0 | 3.0 | 0.00 | 0.00 | 0.00 | 55 | 1024.5 |
| 20260502014557 | 56 | 192 | 1.0 | 2.0 | 0.00 | 0.00 | 0.00 | 53 | 1024.5 |
| 20260502013100 | 56 | 189 | 1.0 | 2.0 | 0.00 | 0.00 | 0.00 | 53 | 1024.5 |
| 20260502011537 | 56 | 202 | 1.0 | 3.0 | 0.00 | 0.00 | 0.00 | 53 | 1024.6 |
| 20260502010017 | 56 | 204 | 1.0 | 3.0 | 0.00 | 0.00 | 0.00 | 53 | 1024.6 |
| 20260502004518 | 56 | 205 | 0.0 | 3.0 | 0.00 | 0.00 | 0.00 | 52 | 1024.6 |
| 20260502003016 | 57 | 186 | 0.0 | 2.0 | 0.00 | 0.00 | 0.00 | 51 | 1024.7 |
| 20260502001506 | 57 | 185 | 1.0 | 2.0 | 0.00 | 0.00 | 0.00 | 50 | 1024.8 |
| 20260502000049 | 58 | 177 | 0.0 | 2.0 | 0.00 | 0.00 | 0.00 | 48 | 1024.9 |
| 20260501234542 | 58 | 192 | 1.0 | 3.0 | 0.00 | 0.00 | 0.00 | 47 | 1024.9 |
| 20260501233038 | 59 | 175 | 1.0 | 2.0 | 0.00 | 0.00 | 0.00 | 46 | 1024.9 |